createdAt,value
2023-05-14T00:09:50.949Z,17.65
2023-05-14T00:19:52.491Z,17.59
2023-05-14T00:29:54.016Z,17.53
2023-05-14T00:39:55.777Z,17.44
2023-05-14T00:49:57.176Z,17.46
2023-05-14T00:59:58.987Z,17.41
2023-05-14T01:10:01.212Z,17.30
2023-05-14T01:20:02.658Z,17.28
2023-05-14T01:30:36.715Z,17.24
2023-05-14T01:40:38.140Z,17.13
2023-05-14T01:50:39.557Z,17.03
2023-05-14T02:00:41.081Z,16.89
2023-05-14T02:10:42.547Z,16.89
2023-05-14T02:20:44.074Z,16.86
2023-05-14T02:30:45.622Z,16.76
2023-05-14T02:40:46.995Z,16.54
2023-05-14T02:50:49.805Z,16.45
2023-05-14T03:00:51.360Z,16.45
2023-05-14T03:10:53.169Z,16.28
2023-05-14T03:20:54.699Z,16.31
2023-05-14T03:30:56.266Z,16.16
2023-05-14T03:40:57.730Z,16.11
2023-05-14T03:50:59.310Z,16.10
2023-05-14T04:01:00.839Z,16.13
2023-05-14T04:11:02.247Z,16.10
2023-05-14T04:21:03.750Z,16.10
2023-05-14T04:31:05.433Z,16.37
2023-05-14T04:41:07.030Z,16.53
2023-05-14T04:51:08.467Z,16.60
2023-05-14T05:01:09.901Z,16.67
2023-05-14T05:11:11.330Z,16.74
2023-05-14T05:21:12.725Z,16.84
2023-05-14T05:31:14.143Z,16.92
2023-05-14T05:41:15.547Z,17.91
2023-05-14T05:51:16.927Z,18.84
2023-05-14T06:01:18.452Z,19.55
2023-05-14T06:11:19.852Z,19.94
2023-05-14T06:21:21.561Z,20.16
2023-05-14T06:31:23.007Z,20.80
2023-05-14T06:41:24.575Z,21.29
2023-05-14T06:51:26.100Z,21.68
2023-05-14T07:01:27.576Z,22.12
2023-05-14T07:11:30.367Z,22.45
2023-05-14T07:21:32.510Z,22.78
2023-05-14T07:31:33.987Z,23.24
2023-05-14T07:41:35.629Z,23.77
2023-05-14T07:51:37.030Z,24.21
2023-05-14T08:01:39.426Z,24.59
2023-05-14T08:11:41.060Z,24.84
2023-05-14T08:21:42.476Z,25.52
2023-05-14T08:31:43.918Z,26.44
2023-05-14T08:41:45.416Z,27.92
2023-05-14T08:51:49.828Z,30.80
2023-05-14T09:01:54.437Z,33.73
2023-05-14T09:11:56.110Z,35.66
2023-05-14T09:22:00.820Z,36.53
2023-05-14T09:32:05.384Z,36.40
2023-05-14T09:42:07.127Z,34.97
2023-05-14T09:52:08.726Z,30.47
2023-05-14T10:02:23.165Z,27.31
2023-05-14T10:12:24.747Z,26.14
2023-05-14T10:22:27.680Z,25.00
2023-05-14T10:32:33.024Z,24.35
2023-05-14T10:42:43.406Z,24.16
2023-05-14T10:52:45.407Z,23.72
2023-05-14T11:02:46.876Z,23.42
2023-05-14T11:12:49.436Z,23.32
2023-05-14T11:22:53.837Z,23.14
2023-05-14T11:32:55.678Z,23.13
2023-05-14T11:42:57.232Z,23.24
2023-05-14T11:52:58.653Z,23.12
2023-05-14T12:03:00.094Z,23.08
2023-05-14T12:13:01.537Z,22.99
2023-05-14T12:23:02.925Z,22.98
2023-05-14T12:33:04.395Z,22.79
2023-05-14T12:43:06.159Z,22.66
2023-05-14T12:53:07.538Z,22.65
2023-05-14T13:03:08.951Z,22.74
2023-05-14T13:13:11.561Z,22.80
2023-05-14T13:23:13.522Z,22.61
2023-05-14T13:33:14.926Z,22.75
2023-05-14T13:43:16.835Z,22.75
2023-05-14T13:53:19.659Z,22.61
2023-05-14T14:03:21.205Z,22.63
2023-05-14T14:13:22.939Z,22.56
2023-05-14T14:23:24.424Z,22.47
2023-05-14T14:33:25.875Z,22.56
2023-05-14T14:43:27.408Z,22.50
2023-05-14T14:53:29.074Z,22.46
2023-05-14T15:03:31.268Z,22.42
2023-05-14T15:13:32.914Z,22.36
2023-05-14T15:23:34.418Z,22.30
2023-05-14T15:33:36.050Z,22.30
2023-05-14T15:43:37.591Z,22.22
2023-05-14T15:53:38.974Z,22.27
2023-05-14T16:03:40.628Z,22.19
2023-05-14T16:13:42.252Z,22.12
2023-05-14T16:23:43.818Z,22.08
2023-05-14T16:33:45.282Z,22.04
2023-05-14T16:43:46.659Z,22.04
2023-05-14T16:53:48.193Z,21.97
2023-05-14T17:03:49.775Z,21.92
2023-05-14T17:13:51.309Z,21.90
2023-05-14T17:23:52.849Z,21.82
2023-05-14T17:33:54.223Z,21.76
2023-05-14T17:43:55.788Z,21.74
2023-05-14T17:53:57.274Z,21.69
2023-05-14T18:03:58.723Z,21.62
2023-05-14T18:14:00.757Z,21.51
2023-05-14T18:24:02.772Z,21.36
2023-05-14T18:34:04.342Z,21.28
2023-05-14T18:44:05.924Z,21.22
2023-05-14T18:54:07.502Z,21.14
2023-05-14T19:04:09.091Z,21.05
2023-05-14T19:14:11.396Z,20.93
2023-05-14T19:24:12.778Z,20.85
2023-05-14T19:34:14.197Z,20.79
2023-05-14T19:44:15.567Z,20.72
2023-05-14T19:54:17.015Z,20.66
2023-05-14T20:04:19.810Z,20.54
2023-05-14T20:14:21.347Z,20.47
2023-05-14T20:24:22.965Z,20.42
2023-05-14T20:34:24.705Z,20.37
2023-05-14T20:44:26.217Z,20.33
2023-05-14T20:54:27.613Z,20.30
2023-05-14T21:04:29.165Z,20.26
2023-05-14T21:14:30.800Z,20.21
2023-05-14T21:24:32.200Z,20.13
2023-05-14T21:34:33.712Z,20.09
2023-05-14T21:44:35.215Z,20.06
2023-05-14T21:54:36.609Z,19.97
2023-05-14T22:04:38.002Z,19.91
2023-05-14T22:14:39.541Z,19.88
2023-05-14T22:24:40.948Z,19.78
2023-05-14T22:34:42.339Z,19.69
2023-05-14T22:44:43.879Z,19.59
2023-05-14T22:54:46.625Z,19.58
2023-05-14T23:04:48.231Z,19.45
2023-05-14T23:14:49.860Z,19.29
2023-05-14T23:24:51.245Z,19.17
2023-05-14T23:34:52.640Z,19.07
2023-05-14T23:44:54.032Z,18.91
2023-05-14T23:54:55.414Z,18.85
